sensor_id;sensor_type;location;lat;lon;timestamp;temperature;humidity
6102;DHT22;3081;50.584;7.032;2023-08-30T00:01:37;15.40;99.90
6102;DHT22;3081;50.584;7.032;2023-08-30T00:04:05;15.40;99.90
6102;DHT22;3081;50.584;7.032;2023-08-30T00:06:32;15.40;99.90
6102;DHT22;3081;50.584;7.032;2023-08-30T00:08:59;15.40;99.90
6102;DHT22;3081;50.584;7.032;2023-08-30T00:11:26;15.40;99.90
6102;DHT22;3081;50.584;7.032;2023-08-30T00:14:02;15.40;99.90
6102;DHT22;3081;50.584;7.032;2023-08-30T00:16:29;15.50;99.90
6102;DHT22;3081;50.584;7.032;2023-08-30T00:18:55;15.40;99.90
6102;DHT22;3081;50.584;7.032;2023-08-30T00:21:24;15.40;99.90
6102;DHT22;3081;50.584;7.032;2023-08-30T00:23:51;15.40;99.90
6102;DHT22;3081;50.584;7.032;2023-08-30T00:26:17;15.30;99.90
6102;DHT22;3081;50.584;7.032;2023-08-30T00:28:44;15.40;99.90
6102;DHT22;3081;50.584;7.032;2023-08-30T00:31:11;15.40;99.90
6102;DHT22;3081;50.584;7.032;2023-08-30T00:33:38;15.40;99.90
6102;DHT22;3081;50.584;7.032;2023-08-30T00:36:05;15.40;99.90
6102;DHT22;3081;50.584;7.032;2023-08-30T00:38:33;15.40;99.90
6102;DHT22;3081;50.584;7.032;2023-08-30T00:41:00;15.40;99.90
6102;DHT22;3081;50.584;7.032;2023-08-30T00:43:27;15.30;99.90
6102;DHT22;3081;50.584;7.032;2023-08-30T00:45:54;15.40;99.90
6102;DHT22;3081;50.584;7.032;2023-08-30T00:48:21;15.30;99.90
6102;DHT22;3081;50.584;7.032;2023-08-30T00:50:48;15.30;99.90
6102;DHT22;3081;50.584;7.032;2023-08-30T00:53:16;15.20;99.90
6102;DHT22;3081;50.584;7.032;2023-08-30T00:55:44;15.20;99.90
6102;DHT22;3081;50.584;7.032;2023-08-30T00:58:12;15.10;99.90
6102;DHT22;3081;50.584;7.032;2023-08-30T01:00:39;15.10;99.90
6102;DHT22;3081;50.584;7.032;2023-08-30T01:03:07;15.20;99.90
6102;DHT22;3081;50.584;7.032;2023-08-30T01:05:34;15.10;99.90
6102;DHT22;3081;50.584;7.032;2023-08-30T01:08:01;15.10;99.90
6102;DHT22;3081;50.584;7.032;2023-08-30T01:10:37;15.10;99.90
6102;DHT22;3081;50.584;7.032;2023-08-30T01:13:09;15.10;99.90
6102;DHT22;3081;50.584;7.032;2023-08-30T01:15:38;15.10;99.90
6102;DHT22;3081;50.584;7.032;2023-08-30T01:18:07;15.00;99.90
6102;DHT22;3081;50.584;7.032;2023-08-30T01:20:36;15.00;99.90
6102;DHT22;3081;50.584;7.032;2023-08-30T01:23:06;14.90;99.90
6102;DHT22;3081;50.584;7.032;2023-08-30T01:25:45;14.90;99.90
6102;DHT22;3081;50.584;7.032;2023-08-30T01:28:17;14.90;99.90
6102;DHT22;3081;50.584;7.032;2023-08-30T01:30:46;14.90;99.90
6102;DHT22;3081;50.584;7.032;2023-08-30T01:33:14;15.00;99.90
6102;DHT22;3081;50.584;7.032;2023-08-30T01:35:41;15.00;99.90
6102;DHT22;3081;50.584;7.032;2023-08-30T01:38:09;15.00;99.90
6102;DHT22;3081;50.584;7.032;2023-08-30T01:40:41;15.00;99.90
6102;DHT22;3081;50.584;7.032;2023-08-30T01:43:09;15.00;99.90
6102;DHT22;3081;50.584;7.032;2023-08-30T01:45:40;15.00;99.90
6102;DHT22;3081;50.584;7.032;2023-08-30T01:48:10;15.00;99.90
6102;DHT22;3081;50.584;7.032;2023-08-30T01:50:38;15.00;99.90
6102;DHT22;3081;50.584;7.032;2023-08-30T01:53:05;15.00;99.90
6102;DHT22;3081;50.584;7.032;2023-08-30T01:55:35;15.00;99.90
6102;DHT22;3081;50.584;7.032;2023-08-30T01:58:03;14.90;99.90
6102;DHT22;3081;50.584;7.032;2023-08-30T02:00:30;14.80;99.90
6102;DHT22;3081;50.584;7.032;2023-08-30T02:02:59;14.80;99.90
6102;DHT22;3081;50.584;7.032;2023-08-30T02:05:25;14.70;99.90
6102;DHT22;3081;50.584;7.032;2023-08-30T02:07:57;14.70;99.90
6102;DHT22;3081;50.584;7.032;2023-08-30T02:10:27;14.70;99.90
6102;DHT22;3081;50.584;7.032;2023-08-30T02:12:58;14.70;99.90
6102;DHT22;3081;50.584;7.032;2023-08-30T02:15:27;14.60;99.90
6102;DHT22;3081;50.584;7.032;2023-08-30T02:17:55;14.60;99.90
6102;DHT22;3081;50.584;7.032;2023-08-30T02:20:23;14.60;99.90
6102;DHT22;3081;50.584;7.032;2023-08-30T02:22:50;14.40;99.90
6102;DHT22;3081;50.584;7.032;2023-08-30T02:25:17;14.60;99.90
6102;DHT22;3081;50.584;7.032;2023-08-30T02:27:44;14.60;99.90
6102;DHT22;3081;50.584;7.032;2023-08-30T02:30:11;14.60;99.90
6102;DHT22;3081;50.584;7.032;2023-08-30T02:32:38;14.60;99.90
6102;DHT22;3081;50.584;7.032;2023-08-30T02:35:06;14.60;99.90
6102;DHT22;3081;50.584;7.032;2023-08-30T02:37:34;14.60;99.90
6102;DHT22;3081;50.584;7.032;2023-08-30T02:40:02;14.60;99.90
6102;DHT22;3081;50.584;7.032;2023-08-30T02:42:29;14.60;99.90
6102;DHT22;3081;50.584;7.032;2023-08-30T02:44:56;14.60;99.90
6102;DHT22;3081;50.584;7.032;2023-08-30T02:47:23;14.60;99.90
6102;DHT22;3081;50.584;7.032;2023-08-30T02:49:50;14.60;99.90
6102;DHT22;3081;50.584;7.032;2023-08-30T02:52:17;14.60;99.90
6102;DHT22;3081;50.584;7.032;2023-08-30T02:54:45;14.60;99.90
6102;DHT22;3081;50.584;7.032;2023-08-30T02:57:12;14.70;99.90
6102;DHT22;3081;50.584;7.032;2023-08-30T02:59:39;14.70;99.90
6102;DHT22;3081;50.584;7.032;2023-08-30T03:02:06;14.70;99.90
6102;DHT22;3081;50.584;7.032;2023-08-30T03:04:33;14.70;99.90
6102;DHT22;3081;50.584;7.032;2023-08-30T03:07:00;14.70;99.90
6102;DHT22;3081;50.584;7.032;2023-08-30T03:09:27;14.60;99.90
6102;DHT22;3081;50.584;7.032;2023-08-30T03:11:55;14.60;99.90
6102;DHT22;3081;50.584;7.032;2023-08-30T03:14:22;14.60;99.90
6102;DHT22;3081;50.584;7.032;2023-08-30T03:16:49;14.60;99.90
6102;DHT22;3081;50.584;7.032;2023-08-30T03:19:16;14.50;99.90
6102;DHT22;3081;50.584;7.032;2023-08-30T03:21:43;14.50;99.90
6102;DHT22;3081;50.584;7.032;2023-08-30T03:24:10;14.40;99.90
6102;DHT22;3081;50.584;7.032;2023-08-30T03:26:39;14.40;99.90
6102;DHT22;3081;50.584;7.032;2023-08-30T03:29:08;14.30;99.90
6102;DHT22;3081;50.584;7.032;2023-08-30T03:31:35;14.30;99.90
6102;DHT22;3081;50.584;7.032;2023-08-30T03:34:02;14.30;99.90
6102;DHT22;3081;50.584;7.032;2023-08-30T03:36:29;14.20;99.90
6102;DHT22;3081;50.584;7.032;2023-08-30T03:38:56;14.30;99.90
6102;DHT22;3081;50.584;7.032;2023-08-30T03:41:23;14.20;99.90
6102;DHT22;3081;50.584;7.032;2023-08-30T03:43:50;14.20;99.90
6102;DHT22;3081;50.584;7.032;2023-08-30T03:46:18;14.20;99.90
6102;DHT22;3081;50.584;7.032;2023-08-30T03:48:45;14.20;99.90
6102;DHT22;3081;50.584;7.032;2023-08-30T03:51:12;14.20;99.90
6102;DHT22;3081;50.584;7.032;2023-08-30T03:53:39;14.10;99.90
6102;DHT22;3081;50.584;7.032;2023-08-30T03:56:06;14.10;99.90
6102;DHT22;3081;50.584;7.032;2023-08-30T03:58:33;14.00;99.90
6102;DHT22;3081;50.584;7.032;2023-08-30T04:01:00;13.90;99.90
6102;DHT22;3081;50.584;7.032;2023-08-30T04:03:28;13.90;99.90
6102;DHT22;3081;50.584;7.032;2023-08-30T04:05:55;13.80;99.90
6102;DHT22;3081;50.584;7.032;2023-08-30T04:08:22;13.70;99.90
6102;DHT22;3081;50.584;7.032;2023-08-30T04:10:52;13.60;99.90
6102;DHT22;3081;50.584;7.032;2023-08-30T04:13:19;13.60;99.90
6102;DHT22;3081;50.584;7.032;2023-08-30T04:15:47;13.60;99.90
6102;DHT22;3081;50.584;7.032;2023-08-30T04:18:14;13.50;99.90
6102;DHT22;3081;50.584;7.032;2023-08-30T04:20:45;13.50;99.90
6102;DHT22;3081;50.584;7.032;2023-08-30T04:23:12;13.50;99.90
6102;DHT22;3081;50.584;7.032;2023-08-30T04:25:40;13.50;99.90
6102;DHT22;3081;50.584;7.032;2023-08-30T04:28:07;13.50;99.90
6102;DHT22;3081;50.584;7.032;2023-08-30T04:30:36;13.50;99.90
6102;DHT22;3081;50.584;7.032;2023-08-30T04:33:04;13.40;99.90
6102;DHT22;3081;50.584;7.032;2023-08-30T04:35:30;13.30;99.90
6102;DHT22;3081;50.584;7.032;2023-08-30T04:38:00;13.30;99.90
6102;DHT22;3081;50.584;7.032;2023-08-30T04:40:27;13.20;99.90
6102;DHT22;3081;50.584;7.032;2023-08-30T04:42:54;13.10;99.90
6102;DHT22;3081;50.584;7.032;2023-08-30T04:45:21;13.10;99.90
6102;DHT22;3081;50.584;7.032;2023-08-30T04:47:49;13.00;99.90
6102;DHT22;3081;50.584;7.032;2023-08-30T04:50:16;13.00;99.90
6102;DHT22;3081;50.584;7.032;2023-08-30T04:52:43;13.00;99.90
6102;DHT22;3081;50.584;7.032;2023-08-30T04:55:11;12.90;99.90
6102;DHT22;3081;50.584;7.032;2023-08-30T04:57:38;12.90;99.90
6102;DHT22;3081;50.584;7.032;2023-08-30T05:00:11;12.90;99.90
6102;DHT22;3081;50.584;7.032;2023-08-30T05:02:38;12.80;99.90
6102;DHT22;3081;50.584;7.032;2023-08-30T05:05:05;12.80;99.90
6102;DHT22;3081;50.584;7.032;2023-08-30T05:07:32;12.80;99.90
6102;DHT22;3081;50.584;7.032;2023-08-30T05:09:59;12.80;99.90
6102;DHT22;3081;50.584;7.032;2023-08-30T05:12:28;12.80;99.90
6102;DHT22;3081;50.584;7.032;2023-08-30T05:14:55;12.90;99.90
6102;DHT22;3081;50.584;7.032;2023-08-30T05:17:22;12.90;99.90
6102;DHT22;3081;50.584;7.032;2023-08-30T05:19:49;12.90;99.90
6102;DHT22;3081;50.584;7.032;2023-08-30T05:22:15;12.90;99.90
6102;DHT22;3081;50.584;7.032;2023-08-30T05:24:42;12.90;99.90
6102;DHT22;3081;50.584;7.032;2023-08-30T05:27:09;12.90;99.90
6102;DHT22;3081;50.584;7.032;2023-08-30T05:29:38;13.00;99.90
6102;DHT22;3081;50.584;7.032;2023-08-30T05:32:05;13.00;99.90
6102;DHT22;3081;50.584;7.032;2023-08-30T05:34:33;13.00;99.90
6102;DHT22;3081;50.584;7.032;2023-08-30T05:37:00;13.00;99.90
6102;DHT22;3081;50.584;7.032;2023-08-30T05:39:27;13.00;99.90
6102;DHT22;3081;50.584;7.032;2023-08-30T05:41:54;13.10;99.90
6102;DHT22;3081;50.584;7.032;2023-08-30T05:44:21;13.10;99.90
6102;DHT22;3081;50.584;7.032;2023-08-30T05:46:49;13.20;99.90
6102;DHT22;3081;50.584;7.032;2023-08-30T05:49:16;13.20;99.90
6102;DHT22;3081;50.584;7.032;2023-08-30T05:51:43;13.20;99.90
6102;DHT22;3081;50.584;7.032;2023-08-30T05:54:10;13.30;99.90
6102;DHT22;3081;50.584;7.032;2023-08-30T05:56:37;13.30;99.90
6102;DHT22;3081;50.584;7.032;2023-08-30T05:59:04;13.30;99.90
6102;DHT22;3081;50.584;7.032;2023-08-30T06:01:30;13.40;99.90
6102;DHT22;3081;50.584;7.032;2023-08-30T06:03:59;13.50;99.90
6102;DHT22;3081;50.584;7.032;2023-08-30T06:06:26;13.50;99.90
6102;DHT22;3081;50.584;7.032;2023-08-30T06:08:53;13.50;99.90
6102;DHT22;3081;50.584;7.032;2023-08-30T06:11:20;13.50;99.90
6102;DHT22;3081;50.584;7.032;2023-08-30T06:13:47;13.60;99.90
6102;DHT22;3081;50.584;7.032;2023-08-30T06:16:14;13.60;99.90
6102;DHT22;3081;50.584;7.032;2023-08-30T06:18:41;13.70;99.90
6102;DHT22;3081;50.584;7.032;2023-08-30T06:21:09;13.80;99.90
6102;DHT22;3081;50.584;7.032;2023-08-30T06:23:38;13.90;99.90
6102;DHT22;3081;50.584;7.032;2023-08-30T06:26:05;13.90;99.90
6102;DHT22;3081;50.584;7.032;2023-08-30T06:28:32;14.00;99.90
6102;DHT22;3081;50.584;7.032;2023-08-30T06:30:58;14.00;99.90
6102;DHT22;3081;50.584;7.032;2023-08-30T06:33:25;14.10;99.90
6102;DHT22;3081;50.584;7.032;2023-08-30T06:35:52;14.10;99.90
6102;DHT22;3081;50.584;7.032;2023-08-30T06:38:22;14.00;99.90
6102;DHT22;3081;50.584;7.032;2023-08-30T06:40:48;14.00;99.90
6102;DHT22;3081;50.584;7.032;2023-08-30T06:43:15;13.90;99.90
6102;DHT22;3081;50.584;7.032;2023-08-30T06:45:43;13.90;99.90
6102;DHT22;3081;50.584;7.032;2023-08-30T06:48:11;13.90;99.90
6102;DHT22;3081;50.584;7.032;2023-08-30T06:50:38;13.80;99.90
6102;DHT22;3081;50.584;7.032;2023-08-30T06:53:05;13.80;99.90
6102;DHT22;3081;50.584;7.032;2023-08-30T06:55:33;13.80;99.90
6102;DHT22;3081;50.584;7.032;2023-08-30T06:58:02;13.80;99.90
6102;DHT22;3081;50.584;7.032;2023-08-30T07:00:29;13.90;99.90
6102;DHT22;3081;50.584;7.032;2023-08-30T07:02:56;14.10;99.90
6102;DHT22;3081;50.584;7.032;2023-08-30T07:05:23;14.20;99.90
6102;DHT22;3081;50.584;7.032;2023-08-30T07:07:50;14.40;99.90
6102;DHT22;3081;50.584;7.032;2023-08-30T07:10:17;14.50;99.90
6102;DHT22;3081;50.584;7.032;2023-08-30T07:12:46;14.70;99.90
6102;DHT22;3081;50.584;7.032;2023-08-30T07:15:14;15.00;99.90
6102;DHT22;3081;50.584;7.032;2023-08-30T07:17:43;15.10;99.90
6102;DHT22;3081;50.584;7.032;2023-08-30T07:20:10;15.30;99.90
6102;DHT22;3081;50.584;7.032;2023-08-30T07:22:37;15.50;99.90
6102;DHT22;3081;50.584;7.032;2023-08-30T07:25:05;15.70;99.90
6102;DHT22;3081;50.584;7.032;2023-08-30T07:27:32;15.80;99.90
6102;DHT22;3081;50.584;7.032;2023-08-30T07:30:01;15.90;99.90
6102;DHT22;3081;50.584;7.032;2023-08-30T07:32:29;16.00;99.90
6102;DHT22;3081;50.584;7.032;2023-08-30T07:34:56;16.00;99.90
6102;DHT22;3081;50.584;7.032;2023-08-30T07:37:23;16.10;99.90
6102;DHT22;3081;50.584;7.032;2023-08-30T07:39:51;16.20;99.90
6102;DHT22;3081;50.584;7.032;2023-08-30T07:42:18;16.40;99.90
6102;DHT22;3081;50.584;7.032;2023-08-30T07:44:45;16.50;99.90
6102;DHT22;3081;50.584;7.032;2023-08-30T07:47:13;16.70;99.90
6102;DHT22;3081;50.584;7.032;2023-08-30T07:49:40;16.90;99.90
6102;DHT22;3081;50.584;7.032;2023-08-30T07:52:07;17.00;99.90
6102;DHT22;3081;50.584;7.032;2023-08-30T07:54:37;17.00;99.90
6102;DHT22;3081;50.584;7.032;2023-08-30T07:57:04;17.10;99.90
6102;DHT22;3081;50.584;7.032;2023-08-30T07:59:33;17.10;99.90
6102;DHT22;3081;50.584;7.032;2023-08-30T08:02:00;17.20;99.90
6102;DHT22;3081;50.584;7.032;2023-08-30T08:04:29;17.20;99.90
6102;DHT22;3081;50.584;7.032;2023-08-30T08:06:56;17.20;99.90
6102;DHT22;3081;50.584;7.032;2023-08-30T08:09:23;17.30;99.90
6102;DHT22;3081;50.584;7.032;2023-08-30T08:11:50;17.50;99.90
6102;DHT22;3081;50.584;7.032;2023-08-30T08:14:17;17.50;99.90
6102;DHT22;3081;50.584;7.032;2023-08-30T08:16:43;17.70;99.90
6102;DHT22;3081;50.584;7.032;2023-08-30T08:19:10;17.90;99.90
6102;DHT22;3081;50.584;7.032;2023-08-30T08:21:39;17.90;99.90
6102;DHT22;3081;50.584;7.032;2023-08-30T08:24:06;18.00;99.90
6102;DHT22;3081;50.584;7.032;2023-08-30T08:26:33;18.10;99.90
6102;DHT22;3081;50.584;7.032;2023-08-30T08:29:00;18.10;99.90
6102;DHT22;3081;50.584;7.032;2023-08-30T08:31:27;18.30;99.90
6102;DHT22;3081;50.584;7.032;2023-08-30T08:34:07;18.40;99.90
6102;DHT22;3081;50.584;7.032;2023-08-30T08:36:35;18.70;99.90
6102;DHT22;3081;50.584;7.032;2023-08-30T08:39:03;18.80;99.90
6102;DHT22;3081;50.584;7.032;2023-08-30T08:41:35;19.00;99.90
6102;DHT22;3081;50.584;7.032;2023-08-30T08:44:05;19.00;99.90
6102;DHT22;3081;50.584;7.032;2023-08-30T08:46:34;19.40;99.90
6102;DHT22;3081;50.584;7.032;2023-08-30T08:49:07;19.80;99.90
6102;DHT22;3081;50.584;7.032;2023-08-30T08:51:35;20.20;99.90
6102;DHT22;3081;50.584;7.032;2023-08-30T08:54:04;20.50;99.90
6102;DHT22;3081;50.584;7.032;2023-08-30T08:56:32;20.50;99.90
6102;DHT22;3081;50.584;7.032;2023-08-30T08:58:59;20.40;99.90
6102;DHT22;3081;50.584;7.032;2023-08-30T09:01:27;20.60;99.90
6102;DHT22;3081;50.584;7.032;2023-08-30T09:03:54;21.10;99.90
6102;DHT22;3081;50.584;7.032;2023-08-30T09:06:22;21.70;99.90
6102;DHT22;3081;50.584;7.032;2023-08-30T09:08:49;22.10;99.90
6102;DHT22;3081;50.584;7.032;2023-08-30T09:11:17;21.90;99.90
6102;DHT22;3081;50.584;7.032;2023-08-30T09:13:44;21.80;99.90
6102;DHT22;3081;50.584;7.032;2023-08-30T09:16:12;22.00;99.90
6102;DHT22;3081;50.584;7.032;2023-08-30T09:18:39;22.70;99.90
6102;DHT22;3081;50.584;7.032;2023-08-30T09:21:06;23.00;99.90
6102;DHT22;3081;50.584;7.032;2023-08-30T09:23:33;23.20;99.90
6102;DHT22;3081;50.584;7.032;2023-08-30T09:26:01;23.30;99.90
6102;DHT22;3081;50.584;7.032;2023-08-30T09:28:30;22.70;99.90
6102;DHT22;3081;50.584;7.032;2023-08-30T09:30:58;22.30;99.90
6102;DHT22;3081;50.584;7.032;2023-08-30T09:33:30;21.90;99.90
6102;DHT22;3081;50.584;7.032;2023-08-30T09:35:58;21.50;99.90
6102;DHT22;3081;50.584;7.032;2023-08-30T09:38:25;21.30;99.90
6102;DHT22;3081;50.584;7.032;2023-08-30T09:41:02;21.10;99.90
6102;DHT22;3081;50.584;7.032;2023-08-30T09:43:32;21.10;99.90
6102;DHT22;3081;50.584;7.032;2023-08-30T09:46:03;21.20;99.90
6102;DHT22;3081;50.584;7.032;2023-08-30T09:48:30;21.00;99.90
6102;DHT22;3081;50.584;7.032;2023-08-30T09:50:58;21.10;99.90
6102;DHT22;3081;50.584;7.032;2023-08-30T09:53:26;21.20;99.90
6102;DHT22;3081;50.584;7.032;2023-08-30T09:55:55;21.40;99.90
6102;DHT22;3081;50.584;7.032;2023-08-30T09:58:23;21.50;99.90
6102;DHT22;3081;50.584;7.032;2023-08-30T10:00:54;21.40;99.90
6102;DHT22;3081;50.584;7.032;2023-08-30T10:03:21;21.50;99.90
6102;DHT22;3081;50.584;7.032;2023-08-30T10:05:49;21.50;99.90
6102;DHT22;3081;50.584;7.032;2023-08-30T10:08:16;21.70;99.90
6102;DHT22;3081;50.584;7.032;2023-08-30T10:10:44;21.90;99.90
6102;DHT22;3081;50.584;7.032;2023-08-30T10:13:11;21.90;99.90
6102;DHT22;3081;50.584;7.032;2023-08-30T10:15:43;21.90;99.90
6102;DHT22;3081;50.584;7.032;2023-08-30T10:18:15;21.80;99.90
6102;DHT22;3081;50.584;7.032;2023-08-30T10:20:46;21.40;99.90
6102;DHT22;3081;50.584;7.032;2023-08-30T10:23:14;21.30;99.90
6102;DHT22;3081;50.584;7.032;2023-08-30T10:25:43;21.30;99.90
6102;DHT22;3081;50.584;7.032;2023-08-30T10:28:11;21.10;99.90
6102;DHT22;3081;50.584;7.032;2023-08-30T10:30:39;21.00;99.90
6102;DHT22;3081;50.584;7.032;2023-08-30T10:33:11;21.00;99.90
6102;DHT22;3081;50.584;7.032;2023-08-30T10:35:48;21.00;99.90
6102;DHT22;3081;50.584;7.032;2023-08-30T10:38:25;21.20;99.90
6102;DHT22;3081;50.584;7.032;2023-08-30T10:40:53;21.20;99.90
6102;DHT22;3081;50.584;7.032;2023-08-30T10:43:28;21.20;99.90
6102;DHT22;3081;50.584;7.032;2023-08-30T10:46:01;21.40;99.90
6102;DHT22;3081;50.584;7.032;2023-08-30T10:48:34;21.60;99.90
6102;DHT22;3081;50.584;7.032;2023-08-30T10:51:05;21.70;99.90
6102;DHT22;3081;50.584;7.032;2023-08-30T10:53:33;22.20;99.90
6102;DHT22;3081;50.584;7.032;2023-08-30T10:56:03;22.80;99.90
6102;DHT22;3081;50.584;7.032;2023-08-30T10:58:40;23.30;99.90
6102;DHT22;3081;50.584;7.032;2023-08-30T11:01:10;23.50;99.90
6102;DHT22;3081;50.584;7.032;2023-08-30T11:03:38;23.50;99.90
6102;DHT22;3081;50.584;7.032;2023-08-30T11:06:07;24.30;99.90
6102;DHT22;3081;50.584;7.032;2023-08-30T11:08:35;25.10;99.90
6102;DHT22;3081;50.584;7.032;2023-08-30T11:11:03;25.50;99.90
6102;DHT22;3081;50.584;7.032;2023-08-30T11:13:31;25.50;99.90
6102;DHT22;3081;50.584;7.032;2023-08-30T11:16:01;26.50;99.90
6102;DHT22;3081;50.584;7.032;2023-08-30T11:18:29;26.70;99.90
6102;DHT22;3081;50.584;7.032;2023-08-30T11:21:00;26.40;99.90
6102;DHT22;3081;50.584;7.032;2023-08-30T11:23:29;26.20;99.90
6102;DHT22;3081;50.584;7.032;2023-08-30T11:25:56;26.40;99.90
6102;DHT22;3081;50.584;7.032;2023-08-30T11:28:22;26.00;99.90
6102;DHT22;3081;50.584;7.032;2023-08-30T11:30:49;25.70;99.90
6102;DHT22;3081;50.584;7.032;2023-08-30T11:33:17;25.80;99.90
6102;DHT22;3081;50.584;7.032;2023-08-30T11:35:45;25.80;99.90
6102;DHT22;3081;50.584;7.032;2023-08-30T11:38:14;25.80;99.90
6102;DHT22;3081;50.584;7.032;2023-08-30T11:40:42;27.00;99.90
6102;DHT22;3081;50.584;7.032;2023-08-30T11:43:09;28.20;99.90
6102;DHT22;3081;50.584;7.032;2023-08-30T11:45:36;28.10;99.90
6102;DHT22;3081;50.584;7.032;2023-08-30T11:48:04;27.20;99.90
6102;DHT22;3081;50.584;7.032;2023-08-30T11:50:32;26.00;99.90
6102;DHT22;3081;50.584;7.032;2023-08-30T11:52:59;25.00;99.90
6102;DHT22;3081;50.584;7.032;2023-08-30T11:55:27;24.60;99.90
6102;DHT22;3081;50.584;7.032;2023-08-30T11:57:55;24.40;99.90
6102;DHT22;3081;50.584;7.032;2023-08-30T12:00:23;24.60;99.90
6102;DHT22;3081;50.584;7.032;2023-08-30T12:02:50;25.30;99.90
6102;DHT22;3081;50.584;7.032;2023-08-30T12:05:16;25.90;99.90
6102;DHT22;3081;50.584;7.032;2023-08-30T12:07:46;26.20;99.90
6102;DHT22;3081;50.584;7.032;2023-08-30T12:10:13;25.80;99.90
6102;DHT22;3081;50.584;7.032;2023-08-30T12:12:45;25.70;99.90
6102;DHT22;3081;50.584;7.032;2023-08-30T12:15:14;26.40;99.90
6102;DHT22;3081;50.584;7.032;2023-08-30T12:17:41;27.40;99.90
6102;DHT22;3081;50.584;7.032;2023-08-30T12:20:15;27.10;99.90
6102;DHT22;3081;50.584;7.032;2023-08-30T12:22:43;27.60;99.90
6102;DHT22;3081;50.584;7.032;2023-08-30T12:25:17;27.30;99.90
6102;DHT22;3081;50.584;7.032;2023-08-30T12:27:44;26.90;99.90
6102;DHT22;3081;50.584;7.032;2023-08-30T12:30:12;26.10;99.90
6102;DHT22;3081;50.584;7.032;2023-08-30T12:32:40;25.60;99.90
6102;DHT22;3081;50.584;7.032;2023-08-30T12:35:07;25.00;99.90
6102;DHT22;3081;50.584;7.032;2023-08-30T12:37:34;24.50;99.90
6102;DHT22;3081;50.584;7.032;2023-08-30T12:40:01;24.10;99.90
6102;DHT22;3081;50.584;7.032;2023-08-30T12:42:29;23.40;99.90
6102;DHT22;3081;50.584;7.032;2023-08-30T12:44:55;23.10;99.90
6102;DHT22;3081;50.584;7.032;2023-08-30T12:47:24;23.90;99.90
6102;DHT22;3081;50.584;7.032;2023-08-30T12:49:51;24.70;99.90
6102;DHT22;3081;50.584;7.032;2023-08-30T12:52:17;25.00;99.90
6102;DHT22;3081;50.584;7.032;2023-08-30T12:54:44;24.80;99.90
6102;DHT22;3081;50.584;7.032;2023-08-30T12:57:11;24.60;99.90
6102;DHT22;3081;50.584;7.032;2023-08-30T12:59:38;23.90;99.90
6102;DHT22;3081;50.584;7.032;2023-08-30T13:02:05;23.70;99.90
6102;DHT22;3081;50.584;7.032;2023-08-30T13:04:33;23.70;99.90
6102;DHT22;3081;50.584;7.032;2023-08-30T13:07:03;23.50;99.90
6102;DHT22;3081;50.584;7.032;2023-08-30T13:09:30;22.90;99.90
6102;DHT22;3081;50.584;7.032;2023-08-30T13:11:57;22.50;99.90
6102;DHT22;3081;50.584;7.032;2023-08-30T13:14:24;21.80;99.90
6102;DHT22;3081;50.584;7.032;2023-08-30T13:16:51;21.20;99.90
6102;DHT22;3081;50.584;7.032;2023-08-30T13:19:18;20.70;99.90
6102;DHT22;3081;50.584;7.032;2023-08-30T13:21:46;20.40;99.90
6102;DHT22;3081;50.584;7.032;2023-08-30T13:24:13;19.60;99.90
6102;DHT22;3081;50.584;7.032;2023-08-30T13:26:40;18.90;99.90
6102;DHT22;3081;50.584;7.032;2023-08-30T13:29:06;18.40;99.90
6102;DHT22;3081;50.584;7.032;2023-08-30T13:31:33;17.90;99.90
6102;DHT22;3081;50.584;7.032;2023-08-30T13:34:00;17.40;99.90
6102;DHT22;3081;50.584;7.032;2023-08-30T13:36:27;17.20;99.90
6102;DHT22;3081;50.584;7.032;2023-08-30T13:38:55;17.10;99.90
6102;DHT22;3081;50.584;7.032;2023-08-30T13:41:22;17.30;99.90
6102;DHT22;3081;50.584;7.032;2023-08-30T13:43:49;17.60;99.90
6102;DHT22;3081;50.584;7.032;2023-08-30T13:46:16;17.90;99.90
6102;DHT22;3081;50.584;7.032;2023-08-30T13:48:43;17.90;99.90
6102;DHT22;3081;50.584;7.032;2023-08-30T13:51:13;17.90;99.90
6102;DHT22;3081;50.584;7.032;2023-08-30T13:53:39;17.80;99.90
6102;DHT22;3081;50.584;7.032;2023-08-30T13:56:08;17.60;99.90
6102;DHT22;3081;50.584;7.032;2023-08-30T13:58:35;17.50;99.90
6102;DHT22;3081;50.584;7.032;2023-08-30T14:01:02;17.40;99.90
6102;DHT22;3081;50.584;7.032;2023-08-30T14:03:29;17.60;99.90
6102;DHT22;3081;50.584;7.032;2023-08-30T14:05:56;17.60;99.90
6102;DHT22;3081;50.584;7.032;2023-08-30T14:08:23;17.60;99.90
6102;DHT22;3081;50.584;7.032;2023-08-30T14:10:50;17.50;99.90
6102;DHT22;3081;50.584;7.032;2023-08-30T14:13:18;17.60;99.90
6102;DHT22;3081;50.584;7.032;2023-08-30T14:15:45;17.70;99.90
6102;DHT22;3081;50.584;7.032;2023-08-30T14:18:13;17.80;99.90
6102;DHT22;3081;50.584;7.032;2023-08-30T14:20:41;18.00;99.90
6102;DHT22;3081;50.584;7.032;2023-08-30T14:23:08;18.10;99.90
6102;DHT22;3081;50.584;7.032;2023-08-30T14:25:36;18.10;99.90
6102;DHT22;3081;50.584;7.032;2023-08-30T14:28:04;18.20;99.90
6102;DHT22;3081;50.584;7.032;2023-08-30T14:30:33;18.30;99.90
6102;DHT22;3081;50.584;7.032;2023-08-30T14:33:00;18.30;99.90
6102;DHT22;3081;50.584;7.032;2023-08-30T14:35:27;18.20;99.90
6102;DHT22;3081;50.584;7.032;2023-08-30T14:37:57;17.90;99.90
6102;DHT22;3081;50.584;7.032;2023-08-30T14:40:24;17.70;99.90
6102;DHT22;3081;50.584;7.032;2023-08-30T14:42:50;17.70;99.90
6102;DHT22;3081;50.584;7.032;2023-08-30T14:45:17;17.80;99.90
6102;DHT22;3081;50.584;7.032;2023-08-30T14:47:46;17.70;99.90
6102;DHT22;3081;50.584;7.032;2023-08-30T14:50:12;17.20;99.90
6102;DHT22;3081;50.584;7.032;2023-08-30T14:52:39;16.70;99.90
6102;DHT22;3081;50.584;7.032;2023-08-30T14:55:07;16.20;99.90
6102;DHT22;3081;50.584;7.032;2023-08-30T14:57:34;15.80;99.90
6102;DHT22;3081;50.584;7.032;2023-08-30T15:00:01;15.60;99.90
6102;DHT22;3081;50.584;7.032;2023-08-30T15:02:28;15.40;99.90
6102;DHT22;3081;50.584;7.032;2023-08-30T15:04:58;15.30;99.90
6102;DHT22;3081;50.584;7.032;2023-08-30T15:07:25;15.10;99.90
6102;DHT22;3081;50.584;7.032;2023-08-30T15:09:52;15.00;99.90
6102;DHT22;3081;50.584;7.032;2023-08-30T15:12:18;15.10;99.90
6102;DHT22;3081;50.584;7.032;2023-08-30T15:14:45;15.10;99.90
6102;DHT22;3081;50.584;7.032;2023-08-30T15:17:13;15.20;99.90
6102;DHT22;3081;50.584;7.032;2023-08-30T15:19:40;15.40;99.90
6102;DHT22;3081;50.584;7.032;2023-08-30T15:22:09;16.30;99.90
6102;DHT22;3081;50.584;7.032;2023-08-30T15:24:36;18.70;99.90
6102;DHT22;3081;50.584;7.032;2023-08-30T15:27:04;22.30;99.90
6102;DHT22;3081;50.584;7.032;2023-08-30T15:29:30;24.00;99.90
6102;DHT22;3081;50.584;7.032;2023-08-30T15:31:57;24.70;99.90
6102;DHT22;3081;50.584;7.032;2023-08-30T15:34:24;26.20;99.90
6102;DHT22;3081;50.584;7.032;2023-08-30T15:36:51;27.90;99.90
6102;DHT22;3081;50.584;7.032;2023-08-30T15:39:19;29.90;99.90
6102;DHT22;3081;50.584;7.032;2023-08-30T15:41:46;30.10;99.90
6102;DHT22;3081;50.584;7.032;2023-08-30T15:44:13;31.40;99.90
6102;DHT22;3081;50.584;7.032;2023-08-30T15:46:40;32.90;99.90
6102;DHT22;3081;50.584;7.032;2023-08-30T15:49:07;33.80;99.90
6102;DHT22;3081;50.584;7.032;2023-08-30T15:51:34;34.30;99.90
6102;DHT22;3081;50.584;7.032;2023-08-30T15:54:01;34.90;99.90
6102;DHT22;3081;50.584;7.032;2023-08-30T15:56:29;34.80;99.90
6102;DHT22;3081;50.584;7.032;2023-08-30T15:58:56;34.90;99.90
6102;DHT22;3081;50.584;7.032;2023-08-30T16:01:23;35.20;99.90
6102;DHT22;3081;50.584;7.032;2023-08-30T16:03:50;35.20;99.90
6102;DHT22;3081;50.584;7.032;2023-08-30T16:06:17;33.00;99.90